Time;durP1;ratioP1;P1;durP2;ratioP2;P2;SDS_P1;SDS_P2;PMS_P1;PMS_P2;Temp;Humidity;BMP_temperature;BMP_pressure;BME280_temperature;BME280_humidity;BME280_pressure;Samples;Min_cycle;Max_cycle;Signal;HPM_P1;HPM_P2
2022/06/26 00:01:29;;;;;;;5.20;4.70;;;;;;;;;;5076865;28;20285;-75
2022/06/26 00:03:55;;;;;;;8.00;5.70;;;;;;;;;;5076990;28;20332;-77
2022/06/26 00:06:20;;;;;;;6.90;5.78;;;;;;;;;;5076644;28;20021;-76
2022/06/26 00:08:45;;;;;;;6.45;5.20;;;;;;;;;;5076603;28;20453;-76
2022/06/26 00:11:11;;;;;;;7.87;5.80;;;;;;;;;;5076381;28;20032;-76
2022/06/26 00:13:36;;;;;;;6.33;5.63;;;;;;;;;;5076301;28;20296;-76
2022/06/26 00:16:01;;;;;;;7.47;5.57;;;;;;;;;;5076552;28;20289;-76
2022/06/26 00:18:26;;;;;;;9.43;5.93;;;;;;;;;;5076530;28;20385;-76
2022/06/26 00:20:52;;;;;;;9.13;6.53;;;;;;;;;;5076484;28;20028;-76
2022/06/26 00:23:17;;;;;;;7.93;6.27;;;;;;;;;;5076331;28;20298;-77
2022/06/26 00:25:42;;;;;;;9.77;6.97;;;;;;;;;;5076258;28;20739;-76
2022/06/26 00:28:07;;;;;;;8.20;6.47;;;;;;;;;;5076030;28;20261;-75
2022/06/26 00:30:33;;;;;;;7.37;6.20;;;;;;;;;;5076084;28;20283;-76
2022/06/26 00:32:58;;;;;;;7.17;6.17;;;;;;;;;;5075974;28;20608;-77
2022/06/26 00:35:23;;;;;;;10.43;6.50;;;;;;;;;;5076275;28;20274;-76
2022/06/26 00:37:48;;;;;;;7.93;6.33;;;;;;;;;;5076254;28;20013;-75
2022/06/26 00:40:14;;;;;;;7.93;6.78;;;;;;;;;;5076032;28;20332;-76
2022/06/26 00:42:39;;;;;;;8.80;6.43;;;;;;;;;;5075911;28;20031;-77
2022/06/26 00:45:05;;;;;;;9.23;7.13;;;;;;;;;;5076157;28;20727;-77
2022/06/26 00:47:33;;;;;;;9.60;7.28;;;;;;;;;;5075888;28;20020;-77
2022/06/26 00:49:58;;;;;;;8.68;7.55;;;;;;;;;;5075806;28;20013;-77
2022/06/26 00:52:23;;;;;;;9.60;7.63;;;;;;;;;;5058183;28;20039;-76
2022/06/26 00:54:52;;;;;;;10.63;7.10;;;;;;;;;;5075881;28;20025;-76
2022/06/26 00:57:20;;;;;;;7.75;6.70;;;;;;;;;;5075638;28;20028;-76
2022/06/26 00:59:46;;;;;;;7.93;6.60;;;;;;;;;;5075945;28;20103;-77
2022/06/26 01:02:12;;;;;;;10.20;7.10;;;;;;;;;;5075495;28;20047;-76
2022/06/26 01:04:37;;;;;;;10.00;6.77;;;;;;;;;;5075850;28;20442;-75
2022/06/26 01:07:02;;;;;;;9.57;7.40;;;;;;;;;;5075168;28;20278;-76
2022/06/26 01:09:28;;;;;;;9.73;7.50;;;;;;;;;;5075532;28;20416;-77
2022/06/26 01:11:53;;;;;;;18.52;8.05;;;;;;;;;;5057639;28;20059;-77
2022/06/26 01:14:19;;;;;;;7.63;6.80;;;;;;;;;;5075407;28;20469;-77
2022/06/26 01:16:45;;;;;;;9.43;7.55;;;;;;;;;;5075299;28;20016;-77
2022/06/26 01:19:13;;;;;;;11.77;8.05;;;;;;;;;;5075270;28;20077;-77
2022/06/26 01:21:38;;;;;;;9.73;7.38;;;;;;;;;;5075293;28;20155;-77
2022/06/26 01:24:04;;;;;;;9.10;8.10;;;;;;;;;;5075442;28;20067;-77
2022/06/26 01:26:31;;;;;;;9.88;8.43;;;;;;;;;;5074924;28;20278;-76
2022/06/26 01:28:56;;;;;;;12.10;8.77;;;;;;;;;;5075182;28;20016;-76
2022/06/26 01:31:21;;;;;;;10.93;8.63;;;;;;;;;;5074954;28;20370;-76
2022/06/26 01:33:47;;;;;;;13.17;8.17;;;;;;;;;;5075026;28;20380;-75
2022/06/26 01:36:13;;;;;;;10.25;8.13;;;;;;;;;;5074990;28;20270;-77
2022/06/26 01:38:38;;;;;;;13.15;8.43;;;;;;;;;;5074903;28;20028;-76
2022/06/26 01:41:03;;;;;;;10.60;8.77;;;;;;;;;;5057049;28;20107;-75
2022/06/26 01:43:30;;;;;;;9.60;7.93;;;;;;;;;;5074733;28;20612;-77
2022/06/26 01:45:56;;;;;;;11.45;9.25;;;;;;;;;;5075045;28;20338;-76
2022/06/26 01:48:22;;;;;;;10.13;8.32;;;;;;;;;;5074721;28;20074;-75
2022/06/26 01:50:47;;;;;;;11.57;8.55;;;;;;;;;;5056674;28;20115;-76
2022/06/26 01:53:14;;;;;;;11.10;8.38;;;;;;;;;;5074795;28;20059;-76
2022/06/26 01:55:40;;;;;;;11.70;8.23;;;;;;;;;;5074434;28;20024;-75
2022/06/26 01:58:05;;;;;;;11.77;8.82;;;;;;;;;;5074627;28;20029;-76
2022/06/26 02:00:35;;;;;;;12.07;9.13;;;;;;;;;;5074677;28;20035;-77
2022/06/26 02:03:00;;;;;;;14.98;9.93;;;;;;;;;;5074507;28;20020;-77
2022/06/26 02:05:26;;;;;;;10.57;8.90;;;;;;;;;;5074446;28;20525;-74
2022/06/26 02:07:51;;;;;;;12.50;9.70;;;;;;;;;;5074205;28;20262;-75
2022/06/26 02:15:46;;;;;;;10.18;8.23;;;;;;;;;;5074488;28;20035;-77
2022/06/26 02:18:12;;;;;;;11.02;8.50;;;;;;;;;;5055479;28;20104;-77
2022/06/26 02:20:37;;;;;;;13.68;9.32;;;;;;;;;;5073767;28;20095;-76
2022/06/26 02:23:03;;;;;;;12.50;9.75;;;;;;;;;;5074208;28;20505;-76
2022/06/26 02:25:29;;;;;;;10.27;8.68;;;;;;;;;;5074262;28;20020;-76
2022/06/26 02:27:54;;;;;;;10.77;9.25;;;;;;;;;;5073890;28;20385;-77
2022/06/26 02:30:19;;;;;;;11.23;10.00;;;;;;;;;;5073961;28;20075;-76
2022/06/26 02:32:44;;;;;;;12.02;8.85;;;;;;;;;;5074228;28;20736;-76
2022/06/26 02:35:10;;;;;;;10.50;8.67;;;;;;;;;;5073865;28;20063;-76
2022/06/26 02:37:35;;;;;;;12.57;9.55;;;;;;;;;;5074167;28;20279;-77
2022/06/26 02:40:01;;;;;;;13.15;9.07;;;;;;;;;;5074111;28;20144;-77
2022/06/26 02:42:26;;;;;;;11.90;9.82;;;;;;;;;;5055933;28;20028;-76
2022/06/26 02:44:51;;;;;;;15.10;9.60;;;;;;;;;;5073859;28;20050;-77
2022/06/26 02:47:17;;;;;;;14.23;9.88;;;;;;;;;;5073848;28;20627;-77
2022/06/26 02:49:42;;;;;;;14.10;9.73;;;;;;;;;;5073781;28;20065;-76
2022/06/26 02:52:07;;;;;;;12.60;10.25;;;;;;;;;;5074149;28;20044;-77
2022/06/26 02:54:32;;;;;;;13.00;9.70;;;;;;;;;;5073867;28;20040;-77
2022/06/26 02:56:58;;;;;;;11.07;9.53;;;;;;;;;;5073830;28;20288;-76
2022/06/26 02:59:23;;;;;;;12.10;10.05;;;;;;;;;;5073598;28;20279;-77
2022/06/26 03:01:48;;;;;;;14.60;10.43;;;;;;;;;;5073626;28;20020;-75
2022/06/26 03:04:14;;;;;;;14.48;9.57;;;;;;;;;;5073579;28;20380;-76
2022/06/26 03:06:39;;;;;;;11.88;9.77;;;;;;;;;;5073847;28;20095;-76
2022/06/26 03:09:04;;;;;;;14.82;8.88;;;;;;;;;;5073724;28;20024;-76
2022/06/26 03:11:30;;;;;;;13.33;9.43;;;;;;;;;;5073733;28;20033;-76
2022/06/26 03:13:55;;;;;;;12.63;9.00;;;;;;;;;;5073584;28;20759;-77
2022/06/26 03:16:21;;;;;;;12.13;9.43;;;;;;;;;;5073537;28;20294;-77
2022/06/26 03:18:47;;;;;;;11.55;9.23;;;;;;;;;;5073299;28;20454;-76
2022/06/26 03:21:12;;;;;;;12.77;9.97;;;;;;;;;;5073428;28;20421;-76
2022/06/26 03:26:21;;;;;;;12.18;9.00;;;;;;;;;;5073236;28;20661;-76
2022/06/26 03:28:46;;;;;;;11.50;8.73;;;;;;;;;;5055284;28;20017;-76
2022/06/26 03:31:12;;;;;;;10.63;9.53;;;;;;;;;;5076881;28;20049;-77
2022/06/26 03:33:37;;;;;;;12.17;9.17;;;;;;;;;;5077312;28;20273;-77
2022/06/26 03:36:02;;;;;;;13.13;9.87;;;;;;;;;;5077467;28;20788;-76
2022/06/26 03:38:27;;;;;;;10.82;9.02;;;;;;;;;;5077638;28;20262;-77
2022/06/26 03:40:53;;;;;;;11.53;9.27;;;;;;;;;;5077207;28;20082;-76
2022/06/26 03:43:18;;;;;;;10.20;8.73;;;;;;;;;;5077487;28;20266;-77
2022/06/26 03:45:43;;;;;;;11.30;8.90;;;;;;;;;;5077381;28;20473;-77
2022/06/26 03:48:08;;;;;;;10.97;8.63;;;;;;;;;;5077048;28;20266;-76
2022/06/26 03:50:34;;;;;;;12.93;9.57;;;;;;;;;;5077148;28;20324;-77
2022/06/26 03:52:59;;;;;;;11.90;9.45;;;;;;;;;;5077076;28;20289;-76
2022/06/26 03:55:24;;;;;;;11.50;10.00;;;;;;;;;;5076919;28;20024;-76
2022/06/26 03:57:49;;;;;;;11.55;9.07;;;;;;;;;;5077042;28;20274;-78
2022/06/26 04:00:15;;;;;;;10.43;8.80;;;;;;;;;;5076964;28;20032;-77
2022/06/26 04:02:40;;;;;;;12.80;9.23;;;;;;;;;;5076607;28;20365;-77
2022/06/26 04:05:06;;;;;;;11.18;8.18;;;;;;;;;;5076629;28;20025;-76
2022/06/26 04:07:31;;;;;;;12.55;8.35;;;;;;;;;;5076853;28;20031;-75
2022/06/26 04:09:57;;;;;;;13.57;9.75;;;;;;;;;;5058728;28;20476;-77
2022/06/26 04:12:22;;;;;;;11.00;8.90;;;;;;;;;;5076666;28;20028;-76
2022/06/26 04:14:47;;;;;;;15.45;8.05;;;;;;;;;;5076479;28;20284;-76
2022/06/26 04:17:13;;;;;;;11.00;8.52;;;;;;;;;;5076242;28;20024;-77
2022/06/26 04:19:38;;;;;;;9.52;8.52;;;;;;;;;;5077146;28;20021;-77
2022/06/26 04:22:04;;;;;;;11.47;8.43;;;;;;;;;;5076345;28;20454;-76
2022/06/26 04:24:29;;;;;;;12.60;7.90;;;;;;;;;;5076422;28;20331;-76
2022/06/26 04:26:55;;;;;;;10.48;9.02;;;;;;;;;;5076415;28;20103;-76
2022/06/26 04:29:20;;;;;;;12.75;8.23;;;;;;;;;;5058343;28;20377;-75
2022/06/26 04:31:46;;;;;;;11.07;8.57;;;;;;;;;;5076088;28;20450;-77
2022/06/26 04:34:11;;;;;;;12.50;8.18;;;;;;;;;;5058394;28;20282;-78
2022/06/26 04:36:36;;;;;;;11.85;8.40;;;;;;;;;;5076152;28;20032;-75
2022/06/26 04:39:02;;;;;;;11.30;8.48;;;;;;;;;;5076210;28;20056;-76
2022/06/26 04:41:36;;;;;;;8.95;7.68;;;;;;;;;;5075440;28;20433;-76
2022/06/26 04:44:08;;;;;;;10.98;8.18;;;;;;;;;;5076260;28;20029;-76
2022/06/26 04:46:35;;;;;;;11.77;8.70;;;;;;;;;;5075916;28;20036;-76
2022/06/26 04:49:00;;;;;;;9.70;7.53;;;;;;;;;;5076226;28;20108;-77
2022/06/26 04:51:26;;;;;;;9.50;7.38;;;;;;;;;;5076508;28;20051;-75
2022/06/26 04:53:51;;;;;;;9.07;8.23;;;;;;;;;;5075958;28;20031;-77
2022/06/26 04:56:16;;;;;;;9.73;7.03;;;;;;;;;;5057945;28;20027;-77
2022/06/26 04:58:42;;;;;;;9.00;7.47;;;;;;;;;;5075720;28;20024;-76
2022/06/26 05:01:07;;;;;;;10.40;8.30;;;;;;;;;;5075603;28;20051;-76
2022/06/26 05:03:33;;;;;;;9.38;7.60;;;;;;;;;;5075641;28;20062;-76
2022/06/26 05:05:58;;;;;;;12.13;7.97;;;;;;;;;;5075585;28;20107;-78
2022/06/26 05:08:24;;;;;;;9.63;7.95;;;;;;;;;;5075794;28;20024;-76
2022/06/26 05:10:49;;;;;;;9.88;8.13;;;;;;;;;;5075518;28;20028;-77
2022/06/26 05:13:14;;;;;;;10.47;7.97;;;;;;;;;;5075586;28;20029;-77
2022/06/26 05:15:39;;;;;;;9.60;7.65;;;;;;;;;;5075386;28;20266;-77
2022/06/26 05:18:05;;;;;;;10.27;8.00;;;;;;;;;;5075761;28;20061;-76
2022/06/26 05:20:30;;;;;;;9.00;8.00;;;;;;;;;;5075369;28;20271;-76
2022/06/26 05:22:55;;;;;;;11.02;8.00;;;;;;;;;;5075874;28;20025;-75
2022/06/26 05:25:21;;;;;;;10.77;7.93;;;;;;;;;;5075519;28;20510;-77
2022/06/26 05:27:46;;;;;;;9.43;7.72;;;;;;;;;;5075503;28;20270;-75
2022/06/26 05:30:11;;;;;;;10.70;8.40;;;;;;;;;;5074915;28;20447;-75
2022/06/26 05:32:36;;;;;;;9.40;7.97;;;;;;;;;;5075291;28;20263;-75
2022/06/26 05:35:02;;;;;;;10.23;8.20;;;;;;;;;;5075213;28;20028;-76
2022/06/26 05:37:27;;;;;;;11.60;7.65;;;;;;;;;;5074963;28;20115;-77
2022/06/26 05:39:52;;;;;;;9.20;7.53;;;;;;;;;;5075315;28;20028;-77
2022/06/26 05:42:18;;;;;;;9.55;7.78;;;;;;;;;;5075195;28;20747;-76
2022/06/26 05:44:43;;;;;;;9.48;8.30;;;;;;;;;;5074787;28;20020;-75
2022/06/26 05:47:08;;;;;;;9.93;7.60;;;;;;;;;;5057024;28;20025;-76
2022/06/26 05:49:33;;;;;;;11.70;7.70;;;;;;;;;;5074862;28;20788;-77
2022/06/26 05:51:59;;;;;;;9.80;7.70;;;;;;;;;;5074774;28;20110;-77
2022/06/26 05:54:24;;;;;;;7.17;6.47;;;;;;;;;;5073753;28;20285;-76
2022/06/26 05:56:49;;;;;;;8.37;7.00;;;;;;;;;;5074796;28;20739;-76
2022/06/26 05:59:15;;;;;;;8.40;6.57;;;;;;;;;;5074496;28;20275;-76
2022/06/26 06:01:40;;;;;;;6.85;6.07;;;;;;;;;;5074469;28;20286;-77
2022/06/26 06:04:06;;;;;;;8.10;6.10;;;;;;;;;;5074582;28;20024;-76
2022/06/26 06:06:31;;;;;;;7.20;6.60;;;;;;;;;;5074654;28;20285;-76
2022/06/26 06:08:56;;;;;;;9.98;7.25;;;;;;;;;;5074412;28;20075;-77
2022/06/26 06:11:22;;;;;;;6.60;6.00;;;;;;;;;;5056487;28;20047;-76
2022/06/26 06:13:47;;;;;;;5.70;5.13;;;;;;;;;;5056346;28;20350;-75
2022/06/26 06:16:12;;;;;;;6.33;5.73;;;;;;;;;;5074318;28;20453;-76
2022/06/26 06:18:38;;;;;;;7.67;5.10;;;;;;;;;;5056272;28;20027;-76
2022/06/26 06:21:03;;;;;;;6.05;5.50;;;;;;;;;;5074194;28;20655;-76
2022/06/26 06:23:28;;;;;;;6.20;5.60;;;;;;;;;;5074303;28;20020;-76
2022/06/26 06:25:54;;;;;;;6.00;5.37;;;;;;;;;;5074132;28;20055;-75
2022/06/26 06:28:20;;;;;;;5.97;5.43;;;;;;;;;;5056197;28;20056;-76
2022/06/26 06:30:45;;;;;;;5.78;5.22;;;;;;;;;;5073956;28;20051;-76
2022/06/26 06:33:11;;;;;;;6.10;5.50;;;;;;;;;;5056257;28;20013;-76
2022/06/26 06:35:36;;;;;;;5.83;5.00;;;;;;;;;;5074261;28;20417;-76
2022/06/26 06:38:02;;;;;;;6.57;5.20;;;;;;;;;;5074541;28;20020;-76
2022/06/26 06:40:27;;;;;;;5.72;5.20;;;;;;;;;;5074748;28;20021;-76
2022/06/26 06:42:52;;;;;;;6.68;5.30;;;;;;;;;;5056230;28;20029;-76
2022/06/26 06:45:18;;;;;;;6.13;5.00;;;;;;;;;;5074473;28;20025;-76
2022/06/26 06:47:43;;;;;;;4.77;4.40;;;;;;;;;;5074092;28;20023;-76
2022/06/26 06:50:08;;;;;;;5.37;4.87;;;;;;;;;;5074334;28;20266;-76
2022/06/26 06:52:34;;;;;;;6.07;5.22;;;;;;;;;;5055897;28;20023;-76
2022/06/26 06:55:00;;;;;;;5.43;4.72;;;;;;;;;;5073734;28;20016;-76
2022/06/26 06:57:26;;;;;;;4.95;4.50;;;;;;;;;;5074022;28;20121;-76
2022/06/26 06:59:51;;;;;;;5.05;4.65;;;;;;;;;;5055880;28;20028;-77
2022/06/26 07:02:16;;;;;;;5.50;4.90;;;;;;;;;;5055644;28;20028;-76
2022/06/26 07:04:41;;;;;;;4.77;4.30;;;;;;;;;;5073310;28;20537;-77
2022/06/26 07:07:07;;;;;;;5.63;5.17;;;;;;;;;;5073671;28;20607;-77
2022/06/26 07:09:32;;;;;;;5.53;4.73;;;;;;;;;;5073625;28;20028;-76
2022/06/26 07:11:58;;;;;;;5.00;4.53;;;;;;;;;;5073461;28;20271;-76
2022/06/26 07:14:23;;;;;;;5.65;4.40;;;;;;;;;;5073607;28;20020;-76
2022/06/26 07:16:49;;;;;;;4.78;4.20;;;;;;;;;;5073666;28;20020;-76
2022/06/26 07:19:15;;;;;;;5.65;4.78;;;;;;;;;;5073332;28;20384;-76
2022/06/26 07:21:43;;;;;;;6.88;4.55;;;;;;;;;;5073493;28;20032;-76
2022/06/26 07:24:08;;;;;;;4.53;4.13;;;;;;;;;;5073268;28;20351;-76
2022/06/26 07:26:34;;;;;;;4.93;4.53;;;;;;;;;;5073370;28;20031;-76
2022/06/26 07:28:59;;;;;;;5.47;4.97;;;;;;;;;;5073230;28;20025;-76
2022/06/26 07:31:24;;;;;;;4.63;4.30;;;;;;;;;;5041599;28;20057;-77
2022/06/26 07:36:33;;;;;;;4.95;4.43;;;;;;;;;;5053468;28;20523;-76
2022/06/26 07:38:59;;;;;;;5.50;5.10;;;;;;;;;;5053062;28;20017;-76
2022/06/26 07:41:24;;;;;;;4.80;4.40;;;;;;;;;;5052867;28;20353;-77
2022/06/26 07:43:49;;;;;;;7.27;4.70;;;;;;;;;;5053126;28;20025;-76
2022/06/26 07:46:15;;;;;;;4.63;4.23;;;;;;;;;;5053257;28;20021;-76
2022/06/26 07:48:40;;;;;;;6.17;4.87;;;;;;;;;;5053656;28;20443;-77
2022/06/26 07:51:05;;;;;;;5.47;4.97;;;;;;;;;;5053306;28;20032;-76
2022/06/26 07:53:31;;;;;;;5.43;4.93;;;;;;;;;;5053090;28;20100;-77
2022/06/26 07:55:56;;;;;;;5.20;4.72;;;;;;;;;;5052938;28;20675;-77
2022/06/26 07:58:21;;;;;;;4.90;4.40;;;;;;;;;;5053286;28;20063;-77
2022/06/26 08:00:47;;;;;;;6.78;5.10;;;;;;;;;;5053203;28;20028;-77
2022/06/26 08:03:15;;;;;;;5.45;4.95;;;;;;;;;;5053183;28;20018;-76
2022/06/26 08:05:41;;;;;;;5.10;4.60;;;;;;;;;;5035116;28;20017;-76
2022/06/26 08:08:07;;;;;;;6.20;5.60;;;;;;;;;;5053106;28;20093;-77
2022/06/26 08:10:32;;;;;;;5.97;5.35;;;;;;;;;;5052893;28;20104;-76
2022/06/26 08:12:58;;;;;;;8.30;6.95;;;;;;;;;;5052976;28;20104;-77
2022/06/26 08:15:23;;;;;;;5.30;4.87;;;;;;;;;;5053098;28;20567;-76
2022/06/26 08:17:48;;;;;;;4.30;3.90;;;;;;;;;;5055748;28;20049;-77
2022/06/26 08:20:14;;;;;;;5.37;4.37;;;;;;;;;;5056712;28;20025;-76
2022/06/26 08:22:39;;;;;;;4.70;4.40;;;;;;;;;;5056396;28;20425;-77
2022/06/26 08:25:05;;;;;;;4.20;3.83;;;;;;;;;;5056585;28;20264;-77
2022/06/26 08:27:30;;;;;;;5.07;4.57;;;;;;;;;;5038488;28;20019;-75
2022/06/26 08:29:55;;;;;;;5.13;4.63;;;;;;;;;;5057561;28;20454;-76
2022/06/26 08:32:21;;;;;;;5.03;4.40;;;;;;;;;;5076567;28;20100;-76
2022/06/26 08:34:46;;;;;;;4.67;4.27;;;;;;;;;;5076415;28;20342;-76
2022/06/26 08:37:11;;;;;;;4.57;3.80;;;;;;;;;;5076244;28;20052;-75
2022/06/26 08:39:36;;;;;;;4.33;3.93;;;;;;;;;;5076154;28;20053;-76
2022/06/26 08:42:02;;;;;;;4.33;3.90;;;;;;;;;;5076080;28;20477;-75
2022/06/26 08:44:28;;;;;;;4.63;4.22;;;;;;;;;;5076175;28;20016;-76
2022/06/26 08:46:53;;;;;;;6.97;4.13;;;;;;;;;;5058145;28;20027;-75
2022/06/26 08:49:20;;;;;;;4.47;4.15;;;;;;;;;;5076151;28;20777;-76
2022/06/26 08:51:47;;;;;;;4.30;3.83;;;;;;;;;;5075954;28;20377;-75
2022/06/26 08:54:13;;;;;;;4.15;3.75;;;;;;;;;;5075819;28;20021;-76
2022/06/26 08:56:41;;;;;;;3.92;3.35;;;;;;;;;;5075858;28;20016;-75
2022/06/26 08:59:06;;;;;;;5.25;4.38;;;;;;;;;;5057869;28;20032;-76
2022/06/26 09:01:32;;;;;;;5.13;4.65;;;;;;;;;;5075691;28;20021;-76
2022/06/26 09:03:57;;;;;;;5.03;3.90;;;;;;;;;;5075792;28;20035;-77
2022/06/26 09:06:22;;;;;;;3.80;3.50;;;;;;;;;;5075806;28;20274;-75
2022/06/26 09:08:51;;;;;;;4.38;3.65;;;;;;;;;;5075587;28;20016;-76
2022/06/26 09:11:17;;;;;;;4.50;4.10;;;;;;;;;;5075510;28;20020;-76
2022/06/26 09:13:43;;;;;;;5.10;4.07;;;;;;;;;;5057732;28;20028;-76
2022/06/26 09:16:09;;;;;;;3.70;3.40;;;;;;;;;;5075933;28;20016;-76
2022/06/26 09:18:35;;;;;;;3.78;3.47;;;;;;;;;;5075634;28;20016;-76
2022/06/26 09:21:01;;;;;;;3.55;3.25;;;;;;;;;;5075510;28;20054;-76
2022/06/26 09:23:26;;;;;;;3.72;3.42;;;;;;;;;;5075322;28;20099;-75
2022/06/26 09:25:51;;;;;;;4.75;3.60;;;;;;;;;;5075875;28;20059;-76
2022/06/26 09:28:18;;;;;;;4.15;3.75;;;;;;;;;;5075107;28;20071;-76
2022/06/26 09:30:58;;;;;;;4.28;3.00;;;;;;;;;;5074929;28;20037;-76
2022/06/26 09:33:25;;;;;;;4.22;2.88;;;;;;;;;;5075483;28;20023;-75
2022/06/26 09:35:51;;;;;;;3.38;2.72;;;;;;;;;;5075884;28;20079;-76
2022/06/26 09:38:18;;;;;;;2.92;2.72;;;;;;;;;;5075567;28;20035;-76
2022/06/26 09:40:52;;;;;;;3.55;3.25;;;;;;;;;;5075010;28;20056;-76
2022/06/26 09:43:32;;;;;;;3.40;3.05;;;;;;;;;;5075084;28;20036;-76
2022/06/26 09:45:59;;;;;;;2.90;2.70;;;;;;;;;;5075144;28;20392;-76
2022/06/26 09:48:24;;;;;;;2.78;2.58;;;;;;;;;;5074709;28;20039;-75
2022/06/26 09:50:50;;;;;;;3.17;2.88;;;;;;;;;;5074588;28;20024;-76
2022/06/26 09:53:16;;;;;;;2.88;2.58;;;;;;;;;;5074856;28;20427;-76
2022/06/26 09:55:42;;;;;;;3.30;3.00;;;;;;;;;;5074508;28;20024;-76
2022/06/26 09:58:08;;;;;;;3.13;2.72;;;;;;;;;;5074712;28;20078;-76
2022/06/26 10:00:35;;;;;;;2.60;2.40;;;;;;;;;;5074578;28;20024;-76
2022/06/26 10:08:29;;;;;;;2.72;2.53;;;;;;;;;;5074756;28;20094;-76
2022/06/26 10:10:54;;;;;;;4.65;4.25;;;;;;;;;;5074370;28;20445;-77
2022/06/26 10:13:22;;;;;;;2.83;2.47;;;;;;;;;;5074425;28;20411;-76
2022/06/26 10:15:51;;;;;;;4.22;2.75;;;;;;;;;;5074488;28;20018;-76
2022/06/26 10:18:25;;;;;;;3.65;3.35;;;;;;;;;;5074255;28;20108;-76
2022/06/26 10:20:52;;;;;;;3.80;3.40;;;;;;;;;;5074530;28;20017;-75
2022/06/26 10:23:52;;;;;;;3.22;3.03;;;;;;;;;;5074474;28;20025;-76
2022/06/26 10:26:21;;;;;;;3.00;2.63;;;;;;;;;;4993434;28;20037;-76
2022/06/26 10:29:00;;;;;;;3.35;2.80;;;;;;;;;;5059117;28;20028;-76
2022/06/26 10:31:28;;;;;;;4.82;2.83;;;;;;;;;;5056642;28;20075;-76
2022/06/26 10:33:53;;;;;;;3.45;2.65;;;;;;;;;;5077234;28;20088;-76
2022/06/26 10:36:22;;;;;;;3.50;2.73;;;;;;;;;;5081836;28;20502;-75
2022/06/26 10:38:47;;;;;;;3.58;3.00;;;;;;;;;;5079865;28;20274;-76
2022/06/26 10:44:03;;;;;;;2.88;2.53;;;;;;;;;;5075336;28;20277;-76
2022/06/26 10:46:47;;;;;;;3.92;2.63;;;;;;;;;;5075468;28;20051;-76
2022/06/26 10:49:12;;;;;;;3.17;2.97;;;;;;;;;;5078804;28;20035;-76
2022/06/26 10:51:39;;;;;;;2.92;2.72;;;;;;;;;;5082433;28;20024;-77
2022/06/26 10:54:16;;;;;;;5.13;2.90;;;;;;;;;;5067294;28;20024;-74
2022/06/26 10:56:41;;;;;;;3.10;2.65;;;;;;;;;;5079345;28;20030;-77
2022/06/26 10:59:06;;;;;;;3.13;2.92;;;;;;;;;;5074285;28;20020;-76
2022/06/26 11:01:32;;;;;;;2.97;2.70;;;;;;;;;;5074060;28;20408;-76
2022/06/26 11:04:01;;;;;;;4.85;3.28;;;;;;;;;;5074350;28;20027;-76
2022/06/26 11:06:27;;;;;;;4.65;3.03;;;;;;;;;;5074460;28;20407;-77
2022/06/26 11:08:53;;;;;;;3.90;3.20;;;;;;;;;;5074057;28;20024;-75
2022/06/26 11:11:20;;;;;;;4.60;3.40;;;;;;;;;;5074125;28;20025;-76
2022/06/26 11:13:50;;;;;;;4.20;3.10;;;;;;;;;;5073509;28;20017;-76
2022/06/26 11:16:16;;;;;;;3.92;3.38;;;;;;;;;;5073476;28;20025;-76
2022/06/26 11:18:41;;;;;;;5.22;2.80;;;;;;;;;;5073812;28;20020;-77
2022/06/26 11:21:06;;;;;;;3.43;2.90;;;;;;;;;;5073860;28;20032;-76
2022/06/26 11:23:33;;;;;;;3.10;2.90;;;;;;;;;;5074101;28;20025;-76
2022/06/26 11:26:00;;;;;;;3.30;2.95;;;;;;;;;;5055756;28;20170;-77
2022/06/26 11:28:30;;;;;;;3.45;3.10;;;;;;;;;;5055583;28;20487;-77
2022/06/26 11:30:55;;;;;;;3.83;3.03;;;;;;;;;;5073522;28;20106;-77
2022/06/26 11:33:25;;;;;;;3.53;3.22;;;;;;;;;;5073670;28;20420;-76
2022/06/26 11:35:50;;;;;;;4.38;3.97;;;;;;;;;;5073674;28;20024;-77
2022/06/26 11:38:16;;;;;;;6.25;3.22;;;;;;;;;;5073929;28;20021;-77
2022/06/26 11:40:42;;;;;;;4.13;3.83;;;;;;;;;;5073745;28;20079;-77
2022/06/26 11:43:08;;;;;;;3.50;3.20;;;;;;;;;;5073469;28;20029;-76
2022/06/26 11:45:34;;;;;;;3.72;3.22;;;;;;;;;;5073585;28;20026;-76
2022/06/26 11:48:00;;;;;;;3.75;3.45;;;;;;;;;;5073474;28;20024;-77
2022/06/26 11:50:27;;;;;;;6.65;3.55;;;;;;;;;;5073973;28;20107;-76
2022/06/26 11:52:53;;;;;;;4.03;3.55;;;;;;;;;;5077395;28;20028;-76
2022/06/26 11:55:18;;;;;;;5.88;3.60;;;;;;;;;;5077200;28;20029;-76
2022/06/26 11:57:44;;;;;;;4.40;4.00;;;;;;;;;;5077292;28;20128;-76
2022/06/26 12:00:10;;;;;;;7.18;3.63;;;;;;;;;;5076987;28;20066;-77
2022/06/26 12:02:40;;;;;;;4.28;3.85;;;;;;;;;;5077131;28;20020;-76
2022/06/26 12:05:06;;;;;;;4.22;3.83;;;;;;;;;;5076855;28;20035;-76
2022/06/26 12:07:41;;;;;;;4.40;4.00;;;;;;;;;;5076788;28;20111;-75
2022/06/26 12:10:07;;;;;;;4.45;4.05;;;;;;;;;;5076774;28;20024;-76
2022/06/26 12:12:32;;;;;;;5.05;3.85;;;;;;;;;;5058714;28;20488;-76
2022/06/26 12:14:57;;;;;;;5.00;3.43;;;;;;;;;;5058911;28;20052;-77
2022/06/26 12:17:23;;;;;;;3.43;3.13;;;;;;;;;;5059072;28;20103;-75
2022/06/26 12:19:49;;;;;;;3.83;3.40;;;;;;;;;;5076804;28;20025;-77
2022/06/26 12:22:24;;;;;;;5.20;4.00;;;;;;;;;;5076498;28;20022;-76
2022/06/26 12:24:50;;;;;;;3.28;3.03;;;;;;;;;;5076689;28;20271;-75
2022/06/26 12:27:15;;;;;;;4.55;2.92;;;;;;;;;;5076711;28;20039;-76
2022/06/26 12:29:40;;;;;;;4.37;3.97;;;;;;;;;;5076795;28;20433;-76
2022/06/26 12:32:05;;;;;;;4.90;3.77;;;;;;;;;;5076343;28;20037;-76
2022/06/26 12:34:31;;;;;;;4.80;3.83;;;;;;;;;;5076434;28;20037;-77
2022/06/26 12:36:56;;;;;;;3.80;3.50;;;;;;;;;;5076500;28;20365;-77
2022/06/26 12:39:21;;;;;;;5.57;3.20;;;;;;;;;;5076175;28;20073;-77
2022/06/26 12:41:47;;;;;;;4.63;3.13;;;;;;;;;;5076434;28;20568;-77
2022/06/26 12:44:12;;;;;;;4.25;3.15;;;;;;;;;;5076640;28;20346;-75
2022/06/26 12:46:37;;;;;;;5.73;3.73;;;;;;;;;;5076422;28;20105;-77
2022/06/26 12:49:02;;;;;;;3.73;3.43;;;;;;;;;;5076298;28;20738;-77
2022/06/26 12:51:28;;;;;;;3.97;3.35;;;;;;;;;;5075868;28;20116;-78
2022/06/26 12:53:53;;;;;;;3.78;3.47;;;;;;;;;;5075883;28;20035;-75
2022/06/26 12:56:19;;;;;;;3.58;3.28;;;;;;;;;;5075925;28;20453;-76
2022/06/26 12:58:44;;;;;;;3.65;3.35;;;;;;;;;;5076167;28;20035;-77
2022/06/26 13:01:09;;;;;;;4.70;3.33;;;;;;;;;;5076045;28;20327;-77
2022/06/26 13:03:38;;;;;;;4.40;3.60;;;;;;;;;;5075342;28;20024;-76
2022/06/26 13:06:03;;;;;;;4.72;3.70;;;;;;;;;;5075843;28;20731;-76
2022/06/26 13:08:30;;;;;;;4.53;3.50;;;;;;;;;;5075804;28;20056;-76
2022/06/26 13:11:22;;;;;;;4.25;3.53;;;;;;;;;;5058379;28;20055;-77
2022/06/26 13:13:41;;;;;;;4.15;3.85;;;;;;;;;;5075394;28;20023;-76
2022/06/26 13:16:06;;;;;;;6.27;4.00;;;;;;;;;;5075887;28;20104;-77
2022/06/26 13:18:31;;;;;;;3.90;3.60;;;;;;;;;;5075636;28;20628;-76
2022/06/26 13:20:57;;;;;;;3.77;3.47;;;;;;;;;;5057632;28;20108;-76
2022/06/26 13:23:22;;;;;;;3.87;3.53;;;;;;;;;;5075662;28;20585;-76
2022/06/26 13:25:47;;;;;;;3.93;3.53;;;;;;;;;;5075851;28;20016;-76
2022/06/26 13:28:12;;;;;;;4.03;3.57;;;;;;;;;;5075339;28;20032;-76
2022/06/26 13:30:38;;;;;;;4.80;3.60;;;;;;;;;;5075461;28;20044;-76
2022/06/26 13:33:03;;;;;;;4.83;3.70;;;;;;;;;;5075537;28;20364;-77
2022/06/26 13:35:28;;;;;;;4.83;3.67;;;;;;;;;;5075356;28;20739;-76
2022/06/26 13:37:53;;;;;;;4.03;3.63;;;;;;;;;;5075703;28;20079;-77
2022/06/26 13:40:19;;;;;;;4.97;3.70;;;;;;;;;;5075435;28;20021;-77
2022/06/26 13:42:44;;;;;;;3.77;3.47;;;;;;;;;;5075593;28;20035;-77
2022/06/26 13:45:09;;;;;;;4.43;3.63;;;;;;;;;;5075402;28;20270;-77
2022/06/26 13:47:35;;;;;;;3.28;2.88;;;;;;;;;;5075439;28;20354;-75
2022/06/26 13:50:00;;;;;;;4.50;3.60;;;;;;;;;;5075066;28;20030;-76
2022/06/26 13:52:26;;;;;;;3.60;3.30;;;;;;;;;;5074811;28;20107;-76
2022/06/26 13:54:51;;;;;;;4.18;3.72;;;;;;;;;;5075132;28;20262;-77
2022/06/26 13:57:16;;;;;;;4.53;3.80;;;;;;;;;;5075052;28;20016;-77
2022/06/26 13:59:41;;;;;;;3.87;3.57;;;;;;;;;;5075211;28;20350;-77
2022/06/26 14:02:07;;;;;;;4.00;3.40;;;;;;;;;;5074775;28;20285;-76
2022/06/26 14:04:33;;;;;;;3.60;3.30;;;;;;;;;;5074690;28;20480;-77
2022/06/26 14:06:58;;;;;;;4.05;3.65;;;;;;;;;;5074513;28;20056;-77
2022/06/26 14:09:23;;;;;;;4.87;3.23;;;;;;;;;;5074502;28;20101;-78
2022/06/26 14:11:49;;;;;;;3.80;3.35;;;;;;;;;;5074409;28;20350;-76
2022/06/26 14:14:14;;;;;;;3.53;3.22;;;;;;;;;;5073766;28;20066;-76
2022/06/26 14:16:39;;;;;;;4.10;3.70;;;;;;;;;;5074492;28;20044;-77
2022/06/26 14:19:05;;;;;;;3.87;3.53;;;;;;;;;;5056731;28;20255;-76
2022/06/26 14:21:30;;;;;;;4.20;3.80;;;;;;;;;;5074199;28;20020;-77
2022/06/26 14:26:39;;;;;;;3.63;3.13;;;;;;;;;;5074532;28;20328;-78
2022/06/26 14:29:04;;;;;;;5.80;3.70;;;;;;;;;;5074776;28;20024;-77
2022/06/26 14:31:29;;;;;;;3.83;3.53;;;;;;;;;;5074165;28;20048;-77
2022/06/26 14:33:55;;;;;;;3.60;3.30;;;;;;;;;;5074053;28;20321;-77
2022/06/26 14:36:20;;;;;;;3.58;3.28;;;;;;;;;;5074117;28;20052;-76
2022/06/26 14:38:46;;;;;;;4.20;3.55;;;;;;;;;;5074496;28;20012;-76
2022/06/26 14:41:11;;;;;;;4.27;3.27;;;;;;;;;;5074157;28;20048;-76
2022/06/26 14:43:37;;;;;;;4.30;3.42;;;;;;;;;;5074069;28;20254;-76
2022/06/26 14:46:02;;;;;;;3.58;3.28;;;;;;;;;;5074354;28;20511;-76
2022/06/26 14:48:27;;;;;;;4.50;3.30;;;;;;;;;;5055914;28;20028;-76
2022/06/26 14:50:53;;;;;;;4.05;3.65;;;;;;;;;;5074208;28;20302;-77
2022/06/26 14:53:19;;;;;;;3.55;3.22;;;;;;;;;;5073963;28;20016;-77